RYR332 EGNX-LEAL
Flight info
| Callsign | RYR332 |
|---|---|
| Flight time | 2h 20m |
| Altitude | 37000 |
| Route | SAPCO Y53 DTY M605 SILVA Q41 COWLY UT71 VAPID UN859 SOPIL DCT BALAN DCT LMG DCT PIMQO DCT AGN DCT ANETO DCT POSSY DCT XIMPE DCT RIMES DCT SAURA DCT TATOS DCT PLANA DCT VLC |
| Aircraft | B38M/M-SDE1FGHILORVWXY/HB1 |
Departure
| Time | 2026-05-04 17:13 |
|---|---|
| Airport | East Midlands Airport (EGNX) |
Arrival
| Time | 2026-05-04 19:34 |
|---|---|
| Airport | Alicante-Elche Miguel Hernández Airport (LEAL) |
| Time | Latitude | Longitude | Altitude | Speed | Heading |
|---|---|---|---|---|---|
| 2026-05-04 16:49 | 52.82729 | -1.32999 | 303 ft | 0 kts | 178° |
| 2026-05-04 17:03 | 52.82742 | -1.33000 | 303 ft | 4 kts | 174° |
| 2026-05-04 17:03 | 52.82783 | -1.33022 | 304 ft | 4 kts | 135° |
| 2026-05-04 17:04 | 52.82792 | -1.33053 | 303 ft | 0 kts | 88° |
| 2026-05-04 17:07 | 52.82792 | -1.33042 | 303 ft | 2 kts | 88° |
| 2026-05-04 17:07 | 52.82793 | -1.33014 | 305 ft | 5 kts | 88° |
| 2026-05-04 17:07 | 52.82798 | -1.32900 | 303 ft | 10 kts | 68° |
| 2026-05-04 17:07 | 52.82860 | -1.32858 | 303 ft | 11 kts | 2° |
| 2026-05-04 17:08 | 52.82925 | -1.32813 | 304 ft | 11 kts | 65° |
| 2026-05-04 17:08 | 52.82936 | -1.32518 | 303 ft | 15 kts | 89° |
| 2026-05-04 17:08 | 52.82939 | -1.32340 | 303 ft | 16 kts | 88° |
| 2026-05-04 17:09 | 52.82943 | -1.32140 | 303 ft | 18 kts | 88° |
| 2026-05-04 17:09 | 52.82947 | -1.31923 | 307 ft | 20 kts | 88° |
| 2026-05-04 17:09 | 52.82951 | -1.31691 | 303 ft | 21 kts | 88° |
| 2026-05-04 17:10 | 52.82960 | -1.31208 | 306 ft | 20 kts | 88° |
| 2026-05-04 17:10 | 52.83007 | -1.30706 | 303 ft | 14 kts | 35° |
| 2026-05-04 17:11 | 52.83106 | -1.30687 | 303 ft | 16 kts | 343° |
| 2026-05-04 17:11 | 52.83137 | -1.30797 | 302 ft | 0 kts | 268° |
| 2026-05-04 17:11 | 52.83137 | -1.30799 | 302 ft | 1 kts | 267° |
| 2026-05-04 17:12 | 52.83135 | -1.30899 | 304 ft | 30 kts | 268° |
| 2026-05-04 17:12 | 52.83091 | -1.33342 | 366 ft | 166 kts | 268° |
| 2026-05-04 17:13 | 52.82546 | -1.39178 | 2737 ft | 177 kts | 236° |
| 2026-05-04 17:14 | 52.79232 | -1.43585 | 4285 ft | 229 kts | 229° |
| 2026-05-04 17:14 | 52.78110 | -1.45604 | 4852 ft | 248 kts | 227° |
| 2026-05-04 17:14 | 52.75057 | -1.48541 | 6258 ft | 269 kts | 184° |
| 2026-05-04 17:15 | 52.73192 | -1.48073 | 7055 ft | 277 kts | 161° |
| 2026-05-04 17:15 | 52.69559 | -1.45651 | 8695 ft | 285 kts | 160° |
| 2026-05-04 17:16 | 52.65826 | -1.43181 | 10300 ft | 295 kts | 160° |
| 2026-05-04 17:16 | 52.59613 | -1.39238 | 11842 ft | 331 kts | 160° |
| 2026-05-04 17:17 | 52.57452 | -1.37865 | 12610 ft | 335 kts | 160° |
| 2026-05-04 17:17 | 52.50881 | -1.33521 | 14794 ft | 345 kts | 159° |
| 2026-05-04 17:18 | 52.48656 | -1.32007 | 15521 ft | 347 kts | 159° |
| 2026-05-04 17:18 | 52.44156 | -1.28956 | 16899 ft | 353 kts | 159° |
| 2026-05-04 17:19 | 52.39588 | -1.25868 | 18265 ft | 358 kts | 159° |
| 2026-05-04 17:19 | 52.34946 | -1.22740 | 19368 ft | 363 kts | 160° |
| 2026-05-04 17:20 | 52.30239 | -1.19573 | 20447 ft | 369 kts | 160° |
| 2026-05-04 17:20 | 52.25459 | -1.16363 | 21523 ft | 373 kts | 160° |
| 2026-05-04 17:20 | 52.23053 | -1.14752 | 22076 ft | 375 kts | 161° |
| 2026-05-04 17:21 | 52.18214 | -1.11551 | 23096 ft | 379 kts | 165° |
| 2026-05-04 17:21 | 52.13058 | -1.09755 | 24010 ft | 382 kts | 172° |
| 2026-05-04 17:22 | 52.10448 | -1.08897 | 24441 ft | 384 kts | 172° |
| 2026-05-04 17:22 | 52.07818 | -1.08036 | 24852 ft | 387 kts | 172° |
| 2026-05-04 17:23 | 51.99810 | -1.05423 | 26108 ft | 394 kts | 171° |
| 2026-05-04 17:23 | 51.97148 | -1.04556 | 26508 ft | 397 kts | 171° |
| 2026-05-04 17:23 | 51.91696 | -1.02785 | 27289 ft | 402 kts | 171° |
| 2026-05-04 17:24 | 51.88950 | -1.01894 | 27671 ft | 404 kts | 171° |
| 2026-05-04 17:24 | 51.80573 | -1.01711 | 28723 ft | 408 kts | 189° |
| 2026-05-04 17:25 | 51.77756 | -1.02385 | 29131 ft | 409 kts | 189° |
| 2026-05-04 17:25 | 51.72115 | -1.03800 | 29860 ft | 413 kts | 189° |
| 2026-05-04 17:26 | 51.66400 | -1.05262 | 30486 ft | 418 kts | 189° |
| 2026-05-04 17:26 | 51.57711 | -1.06243 | 31328 ft | 424 kts | 179° |
| 2026-05-04 17:27 | 51.51793 | -1.05948 | 31913 ft | 427 kts | 179° |
| 2026-05-04 17:27 | 51.45831 | -1.05624 | 32420 ft | 431 kts | 178° |
| 2026-05-04 17:28 | 51.39818 | -1.05296 | 33082 ft | 432 kts | 178° |
| 2026-05-04 17:29 | 51.30824 | -1.04804 | 34126 ft | 430 kts | 178° |
| 2026-05-04 17:29 | 51.22169 | -1.01978 | 34947 ft | 429 kts | 157° |
| 2026-05-04 17:30 | 51.13925 | -0.96150 | 35568 ft | 433 kts | 156° |
| 2026-05-04 17:31 | 51.08422 | -0.92170 | 36068 ft | 434 kts | 156° |
| 2026-05-04 17:31 | 51.00168 | -0.86204 | 36690 ft | 435 kts | 156° |
| 2026-05-04 17:32 | 50.94635 | -0.82216 | 37011 ft | 437 kts | 156° |
| 2026-05-04 17:33 | 50.83746 | -0.73835 | 37004 ft | 436 kts | 148° |
| 2026-05-04 17:34 | 50.73493 | -0.63423 | 36996 ft | 438 kts | 148° |
| 2026-05-04 17:35 | 50.60711 | -0.50490 | 36993 ft | 438 kts | 148° |
| 2026-05-04 17:36 | 50.55570 | -0.45312 | 36992 ft | 438 kts | 148° |
| 2026-05-04 17:36 | 50.50429 | -0.40147 | 36991 ft | 438 kts | 149° |
| 2026-05-04 17:37 | 50.45289 | -0.34997 | 36994 ft | 438 kts | 149° |
| 2026-05-04 17:37 | 50.40151 | -0.29863 | 36990 ft | 438 kts | 149° |
| 2026-05-04 17:38 | 50.35011 | -0.24739 | 36990 ft | 437 kts | 149° |
| 2026-05-04 17:38 | 50.29873 | -0.19632 | 36989 ft | 437 kts | 149° |
| 2026-05-04 17:39 | 50.22197 | -0.12025 | 36985 ft | 437 kts | 149° |
| 2026-05-04 17:39 | 50.17053 | -0.06944 | 36988 ft | 437 kts | 149° |
| 2026-05-04 17:40 | 50.11913 | -0.01879 | 36982 ft | 436 kts | 149° |
| 2026-05-04 17:40 | 50.09202 | 0.00163 | 36945 ft | 432 kts | 165° |
| 2026-05-04 17:40 | 50.06296 | 0.01343 | 37001 ft | 432 kts | 166° |
| 2026-05-04 17:41 | 50.00472 | 0.03743 | 36984 ft | 433 kts | 167° |
| 2026-05-04 17:41 | 49.94629 | 0.06059 | 36981 ft | 433 kts | 167° |
| 2026-05-04 17:42 | 49.88784 | 0.08354 | 36982 ft | 433 kts | 167° |
| 2026-05-04 17:42 | 49.82943 | 0.10640 | 36985 ft | 433 kts | 167° |
| 2026-05-04 17:43 | 49.77138 | 0.12907 | 36990 ft | 433 kts | 167° |
| 2026-05-04 17:43 | 49.71292 | 0.15184 | 36989 ft | 433 kts | 167° |
| 2026-05-04 17:44 | 49.65450 | 0.17519 | 36993 ft | 433 kts | 166° |
| 2026-05-04 17:44 | 49.59615 | 0.19869 | 36995 ft | 433 kts | 166° |
| 2026-05-04 17:45 | 49.53786 | 0.22209 | 36995 ft | 433 kts | 166° |
| 2026-05-04 17:45 | 49.47951 | 0.24546 | 36991 ft | 433 kts | 166° |
| 2026-05-04 17:46 | 49.42124 | 0.26873 | 36966 ft | 433 kts | 166° |
| 2026-05-04 17:46 | 49.36332 | 0.29181 | 36966 ft | 433 kts | 167° |
| 2026-05-04 17:47 | 49.30509 | 0.31535 | 36965 ft | 433 kts | 166° |
| 2026-05-04 17:47 | 49.24703 | 0.33997 | 36963 ft | 433 kts | 166° |
| 2026-05-04 17:48 | 49.18896 | 0.36439 | 36960 ft | 433 kts | 166° |
| 2026-05-04 17:48 | 49.13071 | 0.38882 | 36960 ft | 433 kts | 166° |
| 2026-05-04 17:49 | 49.07256 | 0.41315 | 36965 ft | 433 kts | 166° |
| 2026-05-04 17:49 | 49.01442 | 0.43741 | 36963 ft | 433 kts | 166° |
| 2026-05-04 17:50 | 48.95635 | 0.46159 | 36963 ft | 433 kts | 167° |
| 2026-05-04 17:50 | 48.89845 | 0.48564 | 36963 ft | 434 kts | 167° |
| 2026-05-04 17:51 | 48.84026 | 0.50975 | 36961 ft | 434 kts | 167° |
| 2026-05-04 17:51 | 48.78199 | 0.53350 | 36960 ft | 433 kts | 167° |
| 2026-05-04 17:52 | 48.73341 | 0.55253 | 36964 ft | 433 kts | 167° |
| 2026-05-04 17:52 | 48.67502 | 0.57548 | 36964 ft | 433 kts | 167° |
| 2026-05-04 17:53 | 48.61664 | 0.59838 | 36966 ft | 432 kts | 167° |
| 2026-05-04 17:53 | 48.55867 | 0.62107 | 36956 ft | 430 kts | 167° |
| 2026-05-04 17:54 | 48.50083 | 0.64423 | 36960 ft | 430 kts | 167° |
| 2026-05-04 17:54 | 48.44298 | 0.66774 | 36955 ft | 430 kts | 167° |
| 2026-05-04 17:55 | 48.38529 | 0.69110 | 36954 ft | 428 kts | 167° |
| 2026-05-04 17:55 | 48.32814 | 0.71418 | 36952 ft | 428 kts | 167° |
| 2026-05-04 17:56 | 48.27066 | 0.73735 | 36947 ft | 428 kts | 167° |
| 2026-05-04 17:56 | 48.21299 | 0.76015 | 36940 ft | 428 kts | 167° |
| 2026-05-04 17:57 | 48.15545 | 0.78280 | 36945 ft | 426 kts | 167° |
| 2026-05-04 17:57 | 48.09799 | 0.80539 | 36943 ft | 427 kts | 167° |
| 2026-05-04 17:58 | 48.04054 | 0.82792 | 36936 ft | 426 kts | 167° |
| 2026-05-04 17:58 | 47.98311 | 0.85039 | 36921 ft | 426 kts | 168° |
| 2026-05-04 17:59 | 47.92615 | 0.87262 | 36931 ft | 425 kts | 168° |
| 2026-05-04 18:00 | 47.84017 | 0.90608 | 36933 ft | 425 kts | 168° |
| 2026-05-04 18:00 | 47.78285 | 0.92831 | 36932 ft | 425 kts | 168° |
| 2026-05-04 18:01 | 47.72580 | 0.95039 | 36936 ft | 423 kts | 168° |
| 2026-05-04 18:01 | 47.66883 | 0.97238 | 36937 ft | 423 kts | 168° |
| 2026-05-04 18:02 | 47.58324 | 1.00532 | 36933 ft | 423 kts | 168° |
| 2026-05-04 18:02 | 47.52627 | 1.02719 | 36935 ft | 423 kts | 168° |
| 2026-05-04 18:03 | 47.46962 | 1.04889 | 36936 ft | 423 kts | 168° |
| 2026-05-04 18:03 | 47.41212 | 1.06314 | 36937 ft | 415 kts | 184° |
| 2026-05-04 18:04 | 47.35406 | 1.06234 | 36914 ft | 417 kts | 182° |
| 2026-05-04 18:05 | 47.26691 | 1.06063 | 36936 ft | 417 kts | 182° |
| 2026-05-04 18:05 | 47.20908 | 1.05928 | 36933 ft | 418 kts | 182° |
| 2026-05-04 18:06 | 47.12196 | 1.05724 | 36935 ft | 417 kts | 182° |
| 2026-05-04 18:06 | 47.06388 | 1.05589 | 36933 ft | 417 kts | 182° |
| 2026-05-04 18:07 | 47.00586 | 1.05393 | 36927 ft | 417 kts | 183° |
| 2026-05-04 18:07 | 46.94780 | 1.05141 | 36920 ft | 417 kts | 183° |
| 2026-05-04 18:08 | 46.88972 | 1.04896 | 36927 ft | 417 kts | 183° |
| 2026-05-04 18:08 | 46.83173 | 1.04652 | 36929 ft | 417 kts | 183° |
| 2026-05-04 18:09 | 46.71572 | 1.04166 | 36927 ft | 417 kts | 183° |
| 2026-05-04 18:10 | 46.65769 | 1.03924 | 36925 ft | 417 kts | 183° |
| 2026-05-04 18:10 | 46.60005 | 1.03684 | 36922 ft | 417 kts | 183° |
| 2026-05-04 18:11 | 46.54202 | 1.03442 | 36914 ft | 417 kts | 183° |
| 2026-05-04 18:11 | 46.48395 | 1.03338 | 36924 ft | 417 kts | 182° |
| 2026-05-04 18:12 | 46.42582 | 1.03274 | 36921 ft | 417 kts | 182° |
| 2026-05-04 18:12 | 46.36778 | 1.03206 | 36919 ft | 417 kts | 182° |
| 2026-05-04 18:13 | 46.30976 | 1.03137 | 36921 ft | 417 kts | 182° |
| 2026-05-04 18:14 | 46.22276 | 1.03034 | 36920 ft | 417 kts | 182° |
| 2026-05-04 18:14 | 46.16475 | 1.02966 | 36921 ft | 417 kts | 182° |
| 2026-05-04 18:15 | 46.04926 | 1.02830 | 36915 ft | 416 kts | 182° |
| 2026-05-04 18:16 | 45.99140 | 1.02762 | 36917 ft | 416 kts | 182° |
| 2026-05-04 18:16 | 45.93347 | 1.02694 | 36914 ft | 416 kts | 182° |
| 2026-05-04 18:17 | 45.84652 | 1.02593 | 36909 ft | 416 kts | 182° |
| 2026-05-04 18:18 | 45.76010 | 1.04020 | 36873 ft | 420 kts | 173° |
| 2026-05-04 18:18 | 45.70261 | 1.05481 | 36916 ft | 420 kts | 173° |
| 2026-05-04 18:19 | 45.61632 | 1.07694 | 36924 ft | 420 kts | 173° |
| 2026-05-04 18:19 | 45.55922 | 1.09156 | 36918 ft | 419 kts | 173° |
| 2026-05-04 18:20 | 45.50186 | 1.10623 | 36917 ft | 418 kts | 173° |
| 2026-05-04 18:20 | 45.44462 | 1.12082 | 36927 ft | 418 kts | 173° |
| 2026-05-04 18:21 | 45.38728 | 1.13541 | 36929 ft | 418 kts | 173° |
| 2026-05-04 18:21 | 45.33009 | 1.14994 | 36936 ft | 417 kts | 173° |
| 2026-05-04 18:22 | 45.27302 | 1.16440 | 36919 ft | 416 kts | 173° |
| 2026-05-04 18:22 | 45.21600 | 1.17883 | 36934 ft | 416 kts | 173° |
| 2026-05-04 18:23 | 45.15886 | 1.18987 | 36911 ft | 409 kts | 187° |
| 2026-05-04 18:23 | 45.10330 | 1.17793 | 36911 ft | 408 kts | 191° |
| 2026-05-04 18:24 | 45.04742 | 1.16430 | 36932 ft | 408 kts | 192° |
| 2026-05-04 18:24 | 44.99153 | 1.15010 | 36935 ft | 408 kts | 192° |
| 2026-05-04 18:25 | 44.93564 | 1.13581 | 36935 ft | 409 kts | 192° |
| 2026-05-04 18:25 | 44.87960 | 1.12150 | 36931 ft | 409 kts | 192° |
| 2026-05-04 18:26 | 44.82352 | 1.10721 | 36934 ft | 409 kts | 192° |
| 2026-05-04 18:26 | 44.76735 | 1.09292 | 36941 ft | 409 kts | 192° |
| 2026-05-04 18:27 | 44.71165 | 1.07878 | 36934 ft | 409 kts | 192° |
| 2026-05-04 18:27 | 44.65561 | 1.06458 | 36927 ft | 409 kts | 192° |
| 2026-05-04 18:28 | 44.59952 | 1.05040 | 36923 ft | 409 kts | 192° |
| 2026-05-04 18:28 | 44.54332 | 1.03621 | 36937 ft | 410 kts | 192° |
| 2026-05-04 18:29 | 44.48702 | 1.02204 | 36935 ft | 410 kts | 192° |
| 2026-05-04 18:29 | 44.43119 | 1.00800 | 36934 ft | 410 kts | 192° |
| 2026-05-04 18:30 | 44.34676 | 0.98683 | 36935 ft | 411 kts | 192° |
| 2026-05-04 18:31 | 44.29031 | 0.97270 | 36938 ft | 411 kts | 192° |
| 2026-05-04 18:31 | 44.23398 | 0.95864 | 36932 ft | 411 kts | 192° |
| 2026-05-04 18:32 | 44.17757 | 0.94459 | 36938 ft | 412 kts | 192° |
| 2026-05-04 18:32 | 44.12105 | 0.93053 | 36947 ft | 412 kts | 192° |
| 2026-05-04 18:33 | 44.06456 | 0.91651 | 36948 ft | 412 kts | 192° |
| 2026-05-04 18:33 | 44.00807 | 0.90251 | 36942 ft | 412 kts | 192° |
| 2026-05-04 18:34 | 43.95181 | 0.88860 | 36950 ft | 414 kts | 192° |
| 2026-05-04 18:34 | 43.89520 | 0.87456 | 36952 ft | 413 kts | 193° |
| 2026-05-04 18:35 | 43.83870 | 0.85933 | 36948 ft | 413 kts | 193° |
| 2026-05-04 18:35 | 43.78220 | 0.84420 | 36950 ft | 414 kts | 193° |
| 2026-05-04 18:36 | 43.72565 | 0.82910 | 36960 ft | 414 kts | 193° |
| 2026-05-04 18:36 | 43.66905 | 0.81403 | 36957 ft | 414 kts | 193° |
| 2026-05-04 18:37 | 43.61251 | 0.79899 | 36951 ft | 414 kts | 193° |
| 2026-05-04 18:37 | 43.55590 | 0.78397 | 36969 ft | 415 kts | 193° |
| 2026-05-04 18:38 | 43.49953 | 0.76904 | 36973 ft | 415 kts | 193° |
| 2026-05-04 18:38 | 43.44279 | 0.75404 | 36983 ft | 417 kts | 193° |
| 2026-05-04 18:39 | 43.38572 | 0.73898 | 36977 ft | 418 kts | 193° |
| 2026-05-04 18:39 | 43.32857 | 0.72392 | 36984 ft | 418 kts | 193° |
| 2026-05-04 18:40 | 43.27137 | 0.70889 | 36989 ft | 418 kts | 193° |
| 2026-05-04 18:40 | 43.21454 | 0.69397 | 36963 ft | 418 kts | 193° |
| 2026-05-04 18:41 | 43.15721 | 0.67897 | 37008 ft | 420 kts | 194° |
| 2026-05-04 18:41 | 43.09994 | 0.66400 | 36993 ft | 418 kts | 194° |
| 2026-05-04 18:42 | 43.05241 | 0.65160 | 36990 ft | 418 kts | 194° |
| 2026-05-04 18:42 | 42.99520 | 0.63669 | 36978 ft | 418 kts | 194° |
| 2026-05-04 18:43 | 42.92877 | 0.61944 | 36959 ft | 417 kts | 194° |
| 2026-05-04 18:43 | 42.88126 | 0.60710 | 36989 ft | 418 kts | 194° |
| 2026-05-04 18:44 | 42.82410 | 0.59230 | 36976 ft | 417 kts | 194° |
| 2026-05-04 18:44 | 42.76709 | 0.57756 | 36978 ft | 418 kts | 194° |
| 2026-05-04 18:45 | 42.70993 | 0.56280 | 36958 ft | 417 kts | 195° |
| 2026-05-04 18:45 | 42.68249 | 0.55099 | 36975 ft | 410 kts | 208° |
| 2026-05-04 18:45 | 42.65659 | 0.53440 | 36930 ft | 413 kts | 207° |
| 2026-05-04 18:46 | 42.60466 | 0.50170 | 36942 ft | 412 kts | 207° |
| 2026-05-04 18:46 | 42.55282 | 0.46862 | 36954 ft | 411 kts | 208° |
| 2026-05-04 18:47 | 42.50108 | 0.43559 | 36923 ft | 410 kts | 208° |
| 2026-05-04 18:47 | 42.44964 | 0.40280 | 36936 ft | 412 kts | 208° |
| 2026-05-04 18:48 | 42.39784 | 0.36983 | 36917 ft | 411 kts | 208° |
| 2026-05-04 18:48 | 42.34609 | 0.33697 | 36932 ft | 411 kts | 208° |
| 2026-05-04 18:49 | 42.29433 | 0.30416 | 36930 ft | 411 kts | 208° |
| 2026-05-04 18:49 | 42.24254 | 0.27138 | 36929 ft | 411 kts | 208° |
| 2026-05-04 18:50 | 42.19076 | 0.23868 | 36897 ft | 411 kts | 208° |
| 2026-05-04 18:50 | 42.13898 | 0.20603 | 36917 ft | 411 kts | 208° |
| 2026-05-04 18:51 | 42.08744 | 0.17359 | 36926 ft | 411 kts | 208° |
| 2026-05-04 18:51 | 42.06071 | 0.15972 | 36902 ft | 415 kts | 195° |
| 2026-05-04 18:51 | 42.03202 | 0.15442 | 36948 ft | 417 kts | 192° |
| 2026-05-04 18:52 | 41.97413 | 0.14445 | 36909 ft | 419 kts | 191° |
| 2026-05-04 18:52 | 41.91593 | 0.13539 | 36934 ft | 421 kts | 191° |
| 2026-05-04 18:53 | 41.85768 | 0.12664 | 36933 ft | 421 kts | 191° |
| 2026-05-04 18:53 | 41.79940 | 0.11793 | 36936 ft | 421 kts | 191° |
| 2026-05-04 18:54 | 41.74116 | 0.10924 | 36928 ft | 421 kts | 191° |
| 2026-05-04 18:54 | 41.68287 | 0.10057 | 36937 ft | 421 kts | 191° |
| 2026-05-04 18:55 | 41.62500 | 0.09198 | 36935 ft | 421 kts | 191° |
| 2026-05-04 18:55 | 41.53754 | 0.07901 | 36929 ft | 421 kts | 191° |
| 2026-05-04 18:56 | 41.47920 | 0.07039 | 36934 ft | 421 kts | 191° |
| 2026-05-04 18:56 | 41.42087 | 0.06178 | 36942 ft | 422 kts | 191° |
| 2026-05-04 18:57 | 41.36261 | 0.05319 | 36943 ft | 422 kts | 191° |
| 2026-05-04 18:57 | 41.30428 | 0.04461 | 36938 ft | 421 kts | 191° |
| 2026-05-04 18:58 | 41.24592 | 0.03605 | 36951 ft | 421 kts | 191° |
| 2026-05-04 18:58 | 41.18764 | 0.02751 | 36953 ft | 421 kts | 191° |
| 2026-05-04 18:59 | 41.12976 | 0.01904 | 36949 ft | 421 kts | 191° |
| 2026-05-04 18:59 | 41.07154 | 0.01053 | 36965 ft | 420 kts | 192° |
| 2026-05-04 19:00 | 41.01347 | 0.00205 | 36967 ft | 420 kts | 192° |
| 2026-05-04 19:00 | 40.95543 | -0.00641 | 36975 ft | 420 kts | 192° |
| 2026-05-04 19:01 | 40.89723 | -0.01488 | 36954 ft | 421 kts | 192° |
| 2026-05-04 19:01 | 40.83893 | -0.02334 | 36979 ft | 422 kts | 192° |
| 2026-05-04 19:02 | 40.78070 | -0.03178 | 36979 ft | 421 kts | 192° |
| 2026-05-04 19:02 | 40.72248 | -0.04021 | 36988 ft | 421 kts | 192° |
| 2026-05-04 19:03 | 40.66418 | -0.04863 | 36985 ft | 421 kts | 192° |
| 2026-05-04 19:03 | 40.60585 | -0.05704 | 36981 ft | 421 kts | 192° |
| 2026-05-04 19:04 | 40.54805 | -0.06781 | 36968 ft | 413 kts | 202° |
| 2026-05-04 19:04 | 40.49301 | -0.08980 | 36955 ft | 414 kts | 201° |
| 2026-05-04 19:05 | 40.43819 | -0.11145 | 36966 ft | 413 kts | 202° |
| 2026-05-04 19:05 | 40.38324 | -0.13318 | 36964 ft | 412 kts | 202° |
| 2026-05-04 19:06 | 40.32836 | -0.15485 | 36969 ft | 412 kts | 202° |
| 2026-05-04 19:06 | 40.27334 | -0.17655 | 36968 ft | 412 kts | 202° |
| 2026-05-04 19:07 | 40.21839 | -0.19817 | 36957 ft | 412 kts | 202° |
| 2026-05-04 19:07 | 40.16342 | -0.21976 | 36966 ft | 412 kts | 202° |
| 2026-05-04 19:08 | 40.13635 | -0.23038 | 36738 ft | 410 kts | 202° |
| 2026-05-04 19:08 | 40.10864 | -0.24124 | 35973 ft | 412 kts | 202° |
| 2026-05-04 19:08 | 40.08154 | -0.25186 | 35303 ft | 412 kts | 202° |
| 2026-05-04 19:08 | 40.05376 | -0.26272 | 34623 ft | 412 kts | 202° |
| 2026-05-04 19:09 | 40.02659 | -0.27335 | 33868 ft | 414 kts | 202° |
| 2026-05-04 19:09 | 39.99894 | -0.28416 | 32989 ft | 416 kts | 202° |
| 2026-05-04 19:09 | 39.97122 | -0.29496 | 32252 ft | 415 kts | 202° |
| 2026-05-04 19:09 | 39.94371 | -0.30568 | 31735 ft | 409 kts | 202° |
| 2026-05-04 19:10 | 39.91669 | -0.31621 | 31291 ft | 403 kts | 202° |
| 2026-05-04 19:10 | 39.89000 | -0.32660 | 30785 ft | 399 kts | 202° |
| 2026-05-04 19:10 | 39.86341 | -0.33694 | 30200 ft | 397 kts | 202° |
| 2026-05-04 19:10 | 39.83696 | -0.34723 | 29610 ft | 395 kts | 202° |
| 2026-05-04 19:11 | 39.81080 | -0.35739 | 29061 ft | 390 kts | 202° |
| 2026-05-04 19:11 | 39.78491 | -0.36745 | 28533 ft | 386 kts | 202° |
| 2026-05-04 19:11 | 39.75936 | -0.37735 | 28046 ft | 381 kts | 202° |
| 2026-05-04 19:11 | 39.73409 | -0.38715 | 27559 ft | 377 kts | 202° |
| 2026-05-04 19:12 | 39.70904 | -0.39685 | 27069 ft | 373 kts | 202° |
| 2026-05-04 19:12 | 39.65964 | -0.41596 | 26123 ft | 368 kts | 202° |
| 2026-05-04 19:12 | 39.63519 | -0.42541 | 25649 ft | 366 kts | 202° |
| 2026-05-04 19:13 | 39.61083 | -0.43481 | 25181 ft | 363 kts | 202° |
| 2026-05-04 19:13 | 39.58672 | -0.44412 | 24725 ft | 361 kts | 201° |
| 2026-05-04 19:13 | 39.56265 | -0.45340 | 24240 ft | 359 kts | 202° |
| 2026-05-04 19:13 | 39.53877 | -0.46260 | 23817 ft | 357 kts | 202° |
| 2026-05-04 19:14 | 39.51503 | -0.47174 | 23344 ft | 355 kts | 202° |
| 2026-05-04 19:14 | 39.49139 | -0.48080 | 22837 ft | 354 kts | 201° |
| 2026-05-04 19:14 | 39.46764 | -0.48927 | 22257 ft | 354 kts | 200° |
| 2026-05-04 19:14 | 39.44398 | -0.49770 | 21828 ft | 351 kts | 201° |
| 2026-05-04 19:15 | 39.42059 | -0.50604 | 21423 ft | 347 kts | 201° |
| 2026-05-04 19:15 | 39.39737 | -0.51433 | 21000 ft | 345 kts | 201° |
| 2026-05-04 19:15 | 39.37460 | -0.52245 | 20571 ft | 343 kts | 201° |
| 2026-05-04 19:15 | 39.35171 | -0.53062 | 20141 ft | 340 kts | 201° |
| 2026-05-04 19:16 | 39.32893 | -0.53874 | 19711 ft | 338 kts | 201° |
| 2026-05-04 19:16 | 39.30632 | -0.54680 | 19304 ft | 336 kts | 201° |
| 2026-05-04 19:16 | 39.28375 | -0.55483 | 18905 ft | 335 kts | 201° |
| 2026-05-04 19:16 | 39.26137 | -0.56280 | 18503 ft | 333 kts | 201° |
| 2026-05-04 19:17 | 39.23909 | -0.57071 | 18092 ft | 331 kts | 201° |
| 2026-05-04 19:17 | 39.21693 | -0.57859 | 17650 ft | 329 kts | 201° |
| 2026-05-04 19:17 | 39.19501 | -0.58636 | 17250 ft | 326 kts | 201° |
| 2026-05-04 19:17 | 39.17326 | -0.59408 | 16858 ft | 323 kts | 201° |
| 2026-05-04 19:18 | 39.15166 | -0.60174 | 16480 ft | 320 kts | 201° |
| 2026-05-04 19:18 | 39.13042 | -0.60927 | 16087 ft | 324 kts | 200° |
| 2026-05-04 19:18 | 39.10853 | -0.61702 | 15708 ft | 329 kts | 200° |
| 2026-05-04 19:18 | 39.08632 | -0.62488 | 15334 ft | 331 kts | 200° |
| 2026-05-04 19:19 | 39.06416 | -0.63271 | 14962 ft | 331 kts | 200° |
| 2026-05-04 19:19 | 39.04195 | -0.64057 | 14583 ft | 331 kts | 200° |
| 2026-05-04 19:19 | 39.01970 | -0.64843 | 14189 ft | 330 kts | 199° |
| 2026-05-04 19:19 | 38.99756 | -0.65624 | 13818 ft | 328 kts | 199° |
| 2026-05-04 19:20 | 38.97557 | -0.66400 | 13397 ft | 327 kts | 199° |
| 2026-05-04 19:20 | 38.95372 | -0.67171 | 12982 ft | 325 kts | 199° |
| 2026-05-04 19:20 | 38.93206 | -0.67934 | 12609 ft | 321 kts | 199° |
| 2026-05-04 19:20 | 38.91062 | -0.68689 | 12244 ft | 318 kts | 199° |
| 2026-05-04 19:21 | 38.88935 | -0.69438 | 11859 ft | 316 kts | 199° |
| 2026-05-04 19:21 | 38.86827 | -0.70179 | 11496 ft | 313 kts | 199° |
| 2026-05-04 19:21 | 38.84732 | -0.70915 | 11142 ft | 311 kts | 199° |
| 2026-05-04 19:21 | 38.82677 | -0.71636 | 10776 ft | 309 kts | 199° |
| 2026-05-04 19:22 | 38.80611 | -0.72362 | 10506 ft | 304 kts | 199° |
| 2026-05-04 19:22 | 38.78598 | -0.73067 | 10358 ft | 295 kts | 199° |
| 2026-05-04 19:22 | 38.76649 | -0.73751 | 10210 ft | 285 kts | 199° |
| 2026-05-04 19:22 | 38.74763 | -0.74412 | 10088 ft | 276 kts | 199° |
| 2026-05-04 19:23 | 38.72936 | -0.75052 | 9918 ft | 269 kts | 199° |
| 2026-05-04 19:23 | 38.71129 | -0.75685 | 9621 ft | 272 kts | 199° |
| 2026-05-04 19:23 | 38.69284 | -0.76331 | 9288 ft | 277 kts | 199° |
| 2026-05-04 19:23 | 38.67412 | -0.76986 | 8978 ft | 279 kts | 199° |
| 2026-05-04 19:24 | 38.65554 | -0.77635 | 8666 ft | 281 kts | 199° |
| 2026-05-04 19:24 | 38.63672 | -0.78292 | 8386 ft | 281 kts | 199° |
| 2026-05-04 19:24 | 38.61787 | -0.78951 | 8115 ft | 280 kts | 199° |
| 2026-05-04 19:24 | 38.59917 | -0.79603 | 7953 ft | 275 kts | 199° |
| 2026-05-04 19:25 | 38.58063 | -0.80250 | 7814 ft | 277 kts | 199° |
| 2026-05-04 19:25 | 38.56196 | -0.80901 | 7686 ft | 278 kts | 199° |
| 2026-05-04 19:25 | 38.54333 | -0.81549 | 7538 ft | 278 kts | 198° |
| 2026-05-04 19:25 | 38.52433 | -0.82012 | 7247 ft | 277 kts | 193° |
| 2026-05-04 19:26 | 38.50553 | -0.82413 | 6900 ft | 270 kts | 194° |
| 2026-05-04 19:26 | 38.48732 | -0.82813 | 6592 ft | 261 kts | 194° |
| 2026-05-04 19:26 | 38.46957 | -0.83209 | 6320 ft | 257 kts | 194° |
| 2026-05-04 19:26 | 38.45199 | -0.83607 | 6013 ft | 256 kts | 194° |
| 2026-05-04 19:27 | 38.43443 | -0.84006 | 5704 ft | 256 kts | 194° |
| 2026-05-04 19:27 | 38.41695 | -0.84404 | 5444 ft | 254 kts | 194° |
| 2026-05-04 19:27 | 38.39982 | -0.84794 | 5314 ft | 247 kts | 194° |
| 2026-05-04 19:27 | 38.38319 | -0.85172 | 5167 ft | 239 kts | 193° |
| 2026-05-04 19:28 | 38.36755 | -0.85526 | 5106 ft | 222 kts | 194° |
| 2026-05-04 19:28 | 38.35275 | -0.85863 | 4963 ft | 211 kts | 193° |
| 2026-05-04 19:28 | 38.33817 | -0.85744 | 4624 ft | 215 kts | 163° |
| 2026-05-04 19:28 | 38.32603 | -0.84669 | 4314 ft | 215 kts | 131° |
| 2026-05-04 19:29 | 38.31969 | -0.82966 | 4046 ft | 213 kts | 105° |
| 2026-05-04 19:29 | 38.31709 | -0.81136 | 3783 ft | 208 kts | 100° |
| 2026-05-04 19:29 | 38.31479 | -0.79327 | 3504 ft | 205 kts | 101° |
| 2026-05-04 19:29 | 38.31241 | -0.77557 | 3243 ft | 201 kts | 101° |
| 2026-05-04 19:30 | 38.31000 | -0.75823 | 2978 ft | 197 kts | 101° |
| 2026-05-04 19:30 | 38.30765 | -0.74120 | 2721 ft | 191 kts | 101° |
| 2026-05-04 19:30 | 38.30546 | -0.72542 | 2493 ft | 174 kts | 101° |
| 2026-05-04 19:30 | 38.30407 | -0.71543 | 2339 ft | 171 kts | 101° |
| 2026-05-04 19:31 | 38.30200 | -0.70054 | 2118 ft | 171 kts | 100° |
| 2026-05-04 19:31 | 38.29997 | -0.68594 | 1896 ft | 162 kts | 99° |
| 2026-05-04 19:31 | 38.29804 | -0.67206 | 1702 ft | 157 kts | 99° |
| 2026-05-04 19:31 | 38.29614 | -0.65846 | 1474 ft | 155 kts | 99° |
| 2026-05-04 19:32 | 38.29425 | -0.64492 | 1266 ft | 155 kts | 99° |
| 2026-05-04 19:32 | 38.29238 | -0.63145 | 1057 ft | 154 kts | 99° |
| 2026-05-04 19:32 | 38.29052 | -0.61806 | 857 ft | 153 kts | 99° |
| 2026-05-04 19:32 | 38.28869 | -0.60481 | 652 ft | 151 kts | 98° |
| 2026-05-04 19:33 | 38.28688 | -0.59172 | 466 ft | 150 kts | 98° |
| 2026-05-04 19:33 | 38.28506 | -0.57871 | 250 ft | 148 kts | 99° |
| 2026-05-04 19:33 | 38.28330 | -0.56616 | 120 ft | 132 kts | 99° |
| 2026-05-04 19:33 | 38.28211 | -0.55766 | 101 ft | 65 kts | 100° |
| 2026-05-04 19:34 | 38.28156 | -0.55383 | 89 ft | 29 kts | 100° |
| 2026-05-04 19:34 | 38.28127 | -0.55151 | 82 ft | 21 kts | 95° |
| 2026-05-04 19:34 | 38.28130 | -0.54995 | 75 ft | 18 kts | 85° |
| 2026-05-04 19:34 | 38.28167 | -0.54814 | 70 ft | 24 kts | 69° |
| 2026-05-04 19:35 | 38.28235 | -0.54726 | 64 ft | 9 kts | 317° |
| 2026-05-04 19:35 | 38.28252 | -0.54798 | 70 ft | 9 kts | 278° |
| 2026-05-04 19:35 | 38.28262 | -0.54878 | 71 ft | 10 kts | 280° |
| 2026-05-04 19:35 | 38.28275 | -0.54968 | 67 ft | 11 kts | 282° |
| 2026-05-04 19:36 | 38.28288 | -0.55057 | 76 ft | 9 kts | 281° |
| 2026-05-04 19:36 | 38.28298 | -0.55127 | 85 ft | 6 kts | 279° |
| 2026-05-04 19:36 | 38.28304 | -0.55169 | 84 ft | 3 kts | 284° |
| 2026-05-04 19:36 | 38.28319 | -0.55196 | 87 ft | 6 kts | 315° |
| 2026-05-04 19:37 | 38.28374 | -0.55177 | 84 ft | 13 kts | 45° |
| 2026-05-04 19:37 | 38.28437 | -0.55179 | 87 ft | 9 kts | 328° |
| 2026-05-04 19:37 | 38.28471 | -0.55187 | 86 ft | 5 kts | 7° |
| 2026-05-04 19:37 | 38.28504 | -0.55178 | 90 ft | 5 kts | 10° |
| 2026-05-04 19:38 | 38.28519 | -0.55175 | 91 ft | 0 kts | 9° |